createdAt,value
2022-08-07T00:02:37.131Z,99867.16
2022-08-07T00:05:05.967Z,99883.06
2022-08-07T00:07:40.317Z,99869.56
2022-08-07T00:10:30.503Z,99892.38
2022-08-07T00:13:09.750Z,99883.34
2022-08-07T00:15:53.113Z,99876.63
2022-08-07T00:18:23.944Z,99878.31
2022-08-07T00:21:01.683Z,99882.38
2022-08-07T00:23:33.857Z,99871.53
2022-08-07T00:26:13.239Z,99845.28
2022-08-07T00:28:56.813Z,99853.47
2022-08-07T00:31:37.855Z,99859.53
2022-08-07T00:34:10.268Z,99861.91
2022-08-07T00:36:43.359Z,99858.84
2022-08-07T00:39:16.869Z,99857.25
2022-08-07T00:42:01.435Z,99848.47
2022-08-07T00:44:34.561Z,99849.44
2022-08-07T00:47:04.131Z,99846.75
2022-08-07T00:50:20.390Z,99849.97
2022-08-07T00:52:24.875Z,99855.56
2022-08-07T00:54:54.330Z,99871.19
2022-08-07T00:57:25.937Z,99880.06
2022-08-07T00:59:55.377Z,99869.00
2022-08-07T01:02:28.419Z,99869.50
2022-08-07T01:05:00.727Z,99848.72
2022-08-07T01:07:31.540Z,99846.53
2022-08-07T01:10:06.946Z,99847.91
2022-08-07T01:12:53.397Z,99859.13
2022-08-07T01:16:00.853Z,99855.44
2022-08-07T01:18:17.049Z,99886.72
2022-08-07T01:21:22.574Z,99912.72
2022-08-07T01:23:54.907Z,99917.25
2022-08-07T01:26:26.252Z,99912.19
2022-08-07T01:28:56.466Z,99900.28
2022-08-07T01:31:41.982Z,99900.28
2022-08-07T01:34:14.960Z,99914.41
2022-08-07T01:36:52.643Z,99909.25
2022-08-07T01:39:40.360Z,99902.50
2022-08-07T01:42:57.358Z,99904.19
2022-08-07T01:45:36.379Z,99926.84
2022-08-07T01:48:29.352Z,99963.47
2022-08-07T01:51:24.418Z,99974.63
2022-08-07T01:54:11.977Z,99950.47
2022-08-07T01:56:54.058Z,99958.41
2022-08-07T01:59:45.144Z,99966.44
2022-08-07T02:03:12.137Z,99969.31
2022-08-07T02:05:15.845Z,99961.13
2022-08-07T02:07:53.304Z,99969.44
2022-08-07T02:10:33.744Z,99938.97
2022-08-07T02:13:07.820Z,99918.38
2022-08-07T02:15:53.121Z,99942.53
2022-08-07T02:18:25.894Z,99929.53
2022-08-07T02:21:00.994Z,99956.63
2022-08-07T02:23:40.599Z,99930.78
2022-08-07T02:26:31.695Z,99941.25
2022-08-07T02:29:00.082Z,99927.53
2022-08-07T02:31:32.608Z,99912.88
2022-08-07T02:34:11.692Z,99910.31
2022-08-07T02:36:53.675Z,99933.19
2022-08-07T02:39:43.802Z,99931.53
2022-08-07T02:42:18.546Z,99931.53
2022-08-07T02:44:51.890Z,99932.94
2022-08-07T02:47:23.917Z,99952.69
2022-08-07T02:50:01.736Z,99913.94
2022-08-07T02:53:10.914Z,99959.66
2022-08-07T02:56:03.371Z,99960.94
2022-08-07T02:58:39.799Z,99934.66
2022-08-07T03:01:19.103Z,99933.97
2022-08-07T03:04:12.637Z,99959.06
2022-08-07T03:06:45.959Z,99947.38
2022-08-07T03:09:44.697Z,99973.34
2022-08-07T03:12:14.200Z,99965.16
2022-08-07T03:14:56.873Z,99935.66
2022-08-07T03:17:26.801Z,99949.63
2022-08-07T03:19:57.642Z,99950.31
2022-08-07T03:22:30.673Z,99911.00
2022-08-07T03:25:01.496Z,99930.84
2022-08-07T03:27:58.691Z,99932.16
2022-08-07T03:30:28.667Z,99921.97
2022-08-07T03:33:02.432Z,99941.75
2022-08-07T03:35:43.660Z,99936.81
2022-08-07T03:38:25.594Z,99936.66
2022-08-07T03:41:02.138Z,99935.97
2022-08-07T03:43:36.090Z,99935.56
2022-08-07T03:46:10.547Z,99942.47
2022-08-07T03:49:02.045Z,99935.13
2022-08-07T03:51:47.765Z,99931.91
2022-08-07T03:54:35.488Z,99947.66
2022-08-07T03:59:05.551Z,99956.69
2022-08-07T04:00:02.656Z,99945.28
2022-08-07T04:02:47.137Z,99947.53
2022-08-07T04:05:40.204Z,99935.09
2022-08-07T04:08:21.106Z,99941.72
2022-08-07T04:10:54.428Z,99935.09
2022-08-07T04:14:09.873Z,99957.66
2022-08-07T04:16:35.657Z,99936.91
2022-08-07T04:19:15.245Z,99953.31
2022-08-07T04:21:59.099Z,99953.00
2022-08-07T04:24:38.782Z,99962.59
2022-08-07T04:27:20.404Z,99949.56
2022-08-07T04:30:01.244Z,99970.47
2022-08-07T04:32:48.158Z,99970.47
2022-08-07T04:35:35.278Z,99969.19
2022-08-07T04:38:11.419Z,99963.38
2022-08-07T04:40:51.796Z,99956.91
2022-08-07T04:44:11.722Z,99975.22
2022-08-07T04:47:08.269Z,99966.25
2022-08-07T04:50:03.888Z,99957.31
2022-08-07T04:52:51.761Z,99926.69
2022-08-07T04:58:24.302Z,99928.47
2022-08-07T04:58:49.675Z,99932.63
2022-08-07T05:01:21.079Z,99932.81
2022-08-07T05:04:28.054Z,99928.13
2022-08-07T05:07:19.998Z,99918.88
2022-08-07T05:10:11.142Z,99934.81
2022-08-07T05:12:53.639Z,99943.53
2022-08-07T05:15:32.091Z,99931.66
2022-08-07T05:18:09.336Z,99935.09
2022-08-07T05:20:47.533Z,99942.53
2022-08-07T05:23:37.114Z,99944.44
2022-08-07T05:26:18.718Z,99942.16
2022-08-07T05:28:58.627Z,99910.28
2022-08-07T05:31:39.525Z,99947.66
2022-08-07T05:34:18.385Z,99953.25
2022-08-07T05:36:52.934Z,99958.63
2022-08-07T05:40:06.821Z,99938.09
2022-08-07T05:42:34.261Z,99950.69
2022-08-07T05:45:26.327Z,99954.13
2022-08-07T05:48:03.317Z,99956.16
2022-08-07T05:50:43.365Z,99966.94
2022-08-07T05:54:12.816Z,99968.47
2022-08-07T05:56:06.965Z,99980.50
2022-08-07T05:58:52.417Z,99953.22
2022-08-07T06:01:35.627Z,99960.16
2022-08-07T06:04:09.175Z,99966.22
2022-08-07T06:06:46.316Z,99959.34
2022-08-07T06:09:19.283Z,99955.00
2022-08-07T06:11:51.269Z,99950.25
2022-08-07T06:14:28.588Z,99963.38
2022-08-07T06:17:07.325Z,99966.75
2022-08-07T06:19:51.876Z,99972.66
2022-08-07T06:22:38.727Z,99965.25
2022-08-07T06:25:26.534Z,99970.19
2022-08-07T06:28:07.677Z,99959.41
2022-08-07T06:30:42.742Z,99970.56
2022-08-07T06:33:20.069Z,99960.53
2022-08-07T06:36:06.889Z,99940.47
2022-08-07T06:38:59.546Z,99937.16
2022-08-07T06:42:01.666Z,99963.31
2022-08-07T06:45:11.314Z,99952.69
2022-08-07T06:47:48.307Z,99938.72
2022-08-07T06:50:30.450Z,99949.16
2022-08-07T06:53:04.200Z,99950.69
2022-08-07T06:55:47.895Z,99944.09
2022-08-07T06:58:28.814Z,99926.41
2022-08-07T07:01:14.183Z,99943.75
2022-08-07T07:03:49.244Z,99927.41
2022-08-07T07:06:27.115Z,99927.56
2022-08-07T07:08:56.856Z,99933.94
2022-08-07T07:12:07.723Z,99943.94
2022-08-07T07:14:19.025Z,99934.53
2022-08-07T07:16:53.427Z,99945.38
2022-08-07T07:19:55.923Z,99941.34
2022-08-07T07:22:36.008Z,99936.66
2022-08-07T07:26:30.687Z,99934.69
2022-08-07T07:28:42.167Z,99941.00
2022-08-07T07:31:44.150Z,99931.16
2022-08-07T07:34:18.274Z,99929.16
2022-08-07T07:36:53.845Z,99935.00
2022-08-07T07:39:25.898Z,99917.56
2022-08-07T07:42:17.624Z,99924.03
2022-08-07T07:44:50.634Z,99925.94
2022-08-07T07:47:23.632Z,99920.41
2022-08-07T07:50:34.692Z,99914.19
2022-08-07T07:52:46.918Z,99915.66
2022-08-07T07:55:23.161Z,99911.31
2022-08-07T07:57:58.162Z,99904.53
2022-08-07T08:00:31.489Z,99910.00
2022-08-07T08:03:09.016Z,99894.72
2022-08-07T08:05:54.846Z,99915.66
2022-08-07T08:08:35.238Z,99903.25
2022-08-07T08:11:08.596Z,99909.38
2022-08-07T08:13:55.176Z,99905.16
2022-08-07T08:16:31.022Z,99921.44
2022-08-07T08:19:17.990Z,99901.88
2022-08-07T08:22:11.545Z,99907.69
2022-08-07T08:25:18.690Z,99906.72
2022-08-07T08:28:01.734Z,99890.38
2022-08-07T08:30:42.484Z,99887.47
2022-08-07T08:33:19.547Z,99878.38
2022-08-07T08:35:56.350Z,99889.38
2022-08-07T08:38:29.961Z,99896.50
2022-08-07T08:41:05.520Z,99890.94
2022-08-07T08:43:42.170Z,99874.41
2022-08-07T08:46:38.642Z,99905.66
2022-08-07T08:49:32.748Z,99900.38
2022-08-07T08:52:25.148Z,99890.94
2022-08-07T08:55:07.856Z,99869.34
2022-08-07T08:57:45.213Z,99881.50
2022-08-07T09:00:14.973Z,99856.47
2022-08-07T09:02:53.543Z,99880.41
2022-08-07T09:05:59.855Z,99878.94
2022-08-07T09:09:30.133Z,99874.78
2022-08-07T09:12:20.070Z,99870.94
2022-08-07T09:16:21.617Z,99830.47
2022-08-07T09:18:33.728Z,99867.22
2022-08-07T09:21:57.940Z,99871.94
2022-08-07T09:24:59.774Z,99861.75
2022-08-07T09:28:03.102Z,99863.13
2022-08-07T09:31:15.397Z,99865.28
2022-08-07T09:34:33.184Z,99865.69
2022-08-07T09:37:03.274Z,99869.13
2022-08-07T09:40:00.586Z,99841.38
2022-08-07T09:42:53.320Z,99862.09
2022-08-07T09:47:24.644Z,99860.28
2022-08-07T09:50:01.738Z,99864.13
2022-08-07T09:52:10.809Z,99848.47
2022-08-07T09:54:47.933Z,99870.13
2022-08-07T09:57:53.719Z,99856.38
2022-08-07T10:00:31.949Z,99854.56
2022-08-07T10:04:04.943Z,99870.66
2022-08-07T10:06:38.854Z,99859.25
2022-08-07T10:09:59.071Z,99851.91
2022-08-07T10:14:00.570Z,99857.91
2022-08-07T10:17:01.103Z,99847.91
2022-08-07T10:20:13.255Z,99853.00
2022-08-07T10:23:02.711Z,99858.50
2022-08-07T10:26:13.258Z,99854.63
2022-08-07T10:29:02.647Z,99843.22
2022-08-07T10:32:31.569Z,99843.63
2022-08-07T10:35:14.882Z,99849.19
2022-08-07T10:38:21.653Z,99861.28
2022-08-07T10:41:07.611Z,99864.97
2022-08-07T10:43:45.213Z,99849.38
2022-08-07T10:46:20.410Z,99869.84
2022-08-07T10:49:10.886Z,99860.16
2022-08-07T10:52:02.121Z,99870.00
2022-08-07T10:54:53.518Z,99878.66
2022-08-07T10:57:39.585Z,99874.75
2022-08-07T11:00:39.154Z,99857.59
2022-08-07T11:03:20.871Z,99843.88
2022-08-07T11:06:26.735Z,99863.44
2022-08-07T11:08:58.292Z,99863.59
2022-08-07T11:11:36.112Z,99865.97
2022-08-07T11:14:45.488Z,99854.59
2022-08-07T11:17:43.246Z,99844.16
2022-08-07T11:20:27.350Z,99824.75
2022-08-07T11:23:26.275Z,99860.06
2022-08-07T11:26:06.346Z,99860.91
2022-08-07T11:28:51.329Z,99843.63
2022-08-07T11:31:47.708Z,99864.91
2022-08-07T11:34:43.381Z,99853.13
2022-08-07T11:37:58.443Z,99861.69
2022-08-07T11:40:45.318Z,99865.38
2022-08-07T11:43:41.589Z,99867.88
2022-08-07T11:46:42.791Z,99868.63
2022-08-07T11:49:51.155Z,99860.66
2022-08-07T11:52:10.541Z,99860.22
2022-08-07T11:55:13.171Z,99864.91
2022-08-07T11:58:16.559Z,99863.78
2022-08-07T12:01:20.150Z,99866.94
2022-08-07T12:04:12.373Z,99853.56
2022-08-07T12:07:03.033Z,99819.13
2022-08-07T12:09:47.318Z,99845.84
2022-08-07T12:12:25.008Z,99850.34
2022-08-07T12:15:17.412Z,99839.66
2022-08-07T12:18:30.667Z,99837.50
2022-08-07T12:21:55.911Z,99849.75
2022-08-07T12:24:37.934Z,99853.22
2022-08-07T12:27:16.199Z,99861.91
2022-08-07T12:29:51.582Z,99849.03
2022-08-07T12:32:35.496Z,99855.63
2022-08-07T12:35:08.333Z,99855.25
2022-08-07T12:38:09.720Z,99826.75
2022-08-07T12:40:50.453Z,99845.78
2022-08-07T12:44:02.790Z,99851.56
2022-08-07T12:46:26.653Z,99854.03
2022-08-07T12:49:44.720Z,99853.38
2022-08-07T12:52:46.160Z,99851.34
2022-08-07T12:55:40.834Z,99856.28
2022-08-07T12:58:15.350Z,99849.22
2022-08-07T13:00:51.604Z,99870.53
2022-08-07T13:04:02.553Z,99860.84
2022-08-07T13:06:54.205Z,99845.56
2022-08-07T13:10:20.931Z,99848.97
2022-08-07T13:13:12.025Z,99862.44
2022-08-07T13:16:11.521Z,99859.50
2022-08-07T13:18:58.041Z,99872.22
2022-08-07T13:21:37.830Z,99870.28
2022-08-07T13:24:31.666Z,99875.22
2022-08-07T13:27:12.749Z,99870.53
2022-08-07T13:29:59.185Z,99876.13
2022-08-07T13:32:38.270Z,99875.94
2022-08-07T13:35:15.819Z,99857.09
2022-08-07T13:37:59.000Z,99872.28
2022-08-07T13:40:43.235Z,99874.47
2022-08-07T13:43:15.243Z,99834.34
2022-08-07T13:46:20.895Z,99858.44
2022-08-07T13:48:40.811Z,99860.66
2022-08-07T13:51:28.533Z,99881.03
2022-08-07T13:54:07.311Z,99870.75
2022-08-07T13:56:41.363Z,99876.00
2022-08-07T13:59:25.279Z,99871.44
2022-08-07T14:02:08.437Z,99883.91
2022-08-07T14:04:56.545Z,99871.09
2022-08-07T14:07:31.574Z,99887.28
2022-08-07T14:10:21.608Z,99875.50
2022-08-07T14:13:00.721Z,99886.94
2022-08-07T14:15:39.515Z,99880.72
2022-08-07T14:18:24.114Z,99835.13
2022-08-07T14:22:00.458Z,99889.38
2022-08-07T14:24:22.972Z,99866.13
2022-08-07T14:26:59.784Z,99880.28
2022-08-07T14:30:09.527Z,99884.97
2022-08-07T14:32:24.937Z,99882.06
2022-08-07T14:34:55.844Z,99882.88
2022-08-07T14:37:35.996Z,99868.22
2022-08-07T14:40:15.752Z,99908.13
2022-08-07T14:43:01.167Z,99906.44
2022-08-07T14:45:51.071Z,99901.72
2022-08-07T14:48:28.355Z,99905.41
2022-08-07T14:51:20.676Z,99868.09
2022-08-07T14:54:09.847Z,99897.97
2022-08-07T14:56:44.607Z,99903.97
2022-08-07T15:00:03.738Z,99901.53
2022-08-07T15:02:31.739Z,99886.66
2022-08-07T15:05:20.234Z,99900.97
2022-08-07T15:10:58.649Z,99889.25
2022-08-07T15:16:33.558Z,99855.59
2022-08-07T15:22:04.666Z,99919.31
2022-08-07T15:25:14.834Z,99907.66
2022-08-07T15:27:31.583Z,99923.78
2022-08-07T15:33:03.820Z,99917.34
2022-08-07T15:44:18.287Z,99912.53
2022-08-07T15:46:56.773Z,99902.38
2022-08-07T15:52:30.186Z,99923.81
2022-08-07T15:55:03.753Z,99936.94
2022-08-07T15:57:40.120Z,99922.91
2022-08-07T16:00:31.133Z,99899.56
2022-08-07T16:03:03.525Z,99937.59
2022-08-07T16:05:34.144Z,99919.75
2022-08-07T16:08:32.925Z,99921.28
2022-08-07T16:11:26.702Z,99924.50
2022-08-07T16:14:12.504Z,99923.97
2022-08-07T16:16:57.114Z,99920.59
2022-08-07T16:19:58.736Z,99909.78
2022-08-07T16:22:55.173Z,99909.53
2022-08-07T16:25:54.424Z,99919.84
2022-08-07T16:30:08.756Z,99904.34
2022-08-07T16:31:51.046Z,99923.41
2022-08-07T16:34:45.515Z,99910.03
2022-08-07T16:38:03.934Z,99929.13
2022-08-07T16:40:31.856Z,99929.00
2022-08-07T16:43:12.393Z,99909.97
2022-08-07T16:46:34.587Z,99927.84
2022-08-07T16:50:27.148Z,99907.78
2022-08-07T16:52:41.707Z,99929.75
2022-08-07T16:55:08.370Z,99936.44
2022-08-07T16:58:15.902Z,99929.41
2022-08-07T17:01:22.929Z,99925.88
2022-08-07T17:03:59.422Z,99918.16
2022-08-07T17:07:04.021Z,99933.50
2022-08-07T17:10:06.503Z,99928.97
2022-08-07T17:12:44.052Z,99924.75
2022-08-07T17:15:17.126Z,99922.19
2022-08-07T17:17:49.302Z,99931.25
2022-08-07T17:20:39.819Z,99924.19
2022-08-07T17:23:37.703Z,99930.88
2022-08-07T17:26:22.517Z,99927.03
2022-08-07T17:29:04.541Z,99910.44
2022-08-07T17:32:03.344Z,99927.91
2022-08-07T17:35:50.341Z,99921.00
2022-08-07T17:38:32.135Z,99921.00
2022-08-07T17:42:00.637Z,99901.72
2022-08-07T17:44:41.431Z,99917.78
2022-08-07T17:47:38.612Z,99910.72
2022-08-07T17:50:54.046Z,99914.84
2022-08-07T17:54:01.081Z,99929.97
2022-08-07T17:56:26.033Z,99926.03
2022-08-07T17:58:57.786Z,99920.97
2022-08-07T18:01:51.086Z,99908.59
2022-08-07T18:04:31.130Z,99916.19
2022-08-07T18:07:20.942Z,99914.78
2022-08-07T18:10:32.671Z,99890.00
2022-08-07T18:13:20.602Z,99887.31
2022-08-07T18:16:31.118Z,99920.75
2022-08-07T18:21:03.666Z,99926.72
2022-08-07T18:22:17.021Z,99914.69
2022-08-07T18:24:51.989Z,99914.16
2022-08-07T18:27:39.638Z,99916.41
2022-08-07T18:30:31.875Z,99921.66
2022-08-07T18:33:18.316Z,99925.19
2022-08-07T18:36:32.806Z,99917.75
2022-08-07T18:40:08.011Z,99909.72
2022-08-07T18:42:19.442Z,99902.09
2022-08-07T18:45:42.929Z,99904.91
2022-08-07T18:50:06.766Z,99902.53
2022-08-07T18:51:11.965Z,99912.97
2022-08-07T18:54:05.599Z,99913.13
2022-08-07T18:57:29.492Z,99911.84
2022-08-07T19:00:32.662Z,99910.03
2022-08-07T19:03:38.970Z,99912.56
2022-08-07T19:06:16.826Z,99921.03
2022-08-07T19:08:54.964Z,99919.50
2022-08-07T19:11:34.865Z,99899.31
2022-08-07T19:14:20.072Z,99914.41
2022-08-07T19:17:04.802Z,99910.31
2022-08-07T19:20:29.912Z,99931.59
2022-08-07T19:23:18.413Z,99901.97
2022-08-07T19:26:25.326Z,99899.56
2022-08-07T19:30:58.031Z,99916.59
2022-08-07T19:32:09.701Z,99910.69
2022-08-07T19:34:36.233Z,99885.44
2022-08-07T19:37:55.361Z,99907.44
2022-08-07T19:40:30.584Z,99896.56
2022-08-07T19:43:02.822Z,99905.31
2022-08-07T19:46:05.320Z,99888.25
2022-08-07T19:48:43.902Z,99901.66
2022-08-07T19:51:50.465Z,99877.34
2022-08-07T19:54:33.669Z,99895.69
2022-08-07T19:58:02.755Z,99892.88
2022-08-07T20:00:02.129Z,99886.53
2022-08-07T20:02:51.899Z,99890.19
2022-08-07T20:05:29.554Z,99903.00
2022-08-07T20:08:02.838Z,99890.56
2022-08-07T20:10:54.445Z,99896.34
2022-08-07T20:13:33.698Z,99902.69
2022-08-07T20:16:04.501Z,99900.41
2022-08-07T20:18:35.126Z,99888.84
2022-08-07T20:21:14.359Z,99909.44
2022-08-07T20:23:53.537Z,99899.41
2022-08-07T20:26:32.212Z,99912.63
2022-08-07T20:29:10.166Z,99886.09
2022-08-07T20:31:46.556Z,99910.53
2022-08-07T20:34:40.037Z,99891.16
2022-08-07T20:37:10.351Z,99886.78
2022-08-07T20:40:02.757Z,99893.81
2022-08-07T20:42:35.329Z,99897.22
2022-08-07T20:45:33.640Z,99900.03
2022-08-07T20:47:58.801Z,99892.09
2022-08-07T20:50:30.622Z,99858.47
2022-08-07T20:53:01.877Z,99908.13
2022-08-07T20:55:35.973Z,99900.75
2022-08-07T20:58:11.990Z,99923.50
2022-08-07T21:00:45.075Z,99918.75
2022-08-07T21:03:19.278Z,99927.38
2022-08-07T21:06:21.730Z,99936.50
2022-08-07T21:09:15.588Z,99907.50
2022-08-07T21:11:51.462Z,99921.19
2022-08-07T21:14:34.172Z,99933.31
2022-08-07T21:18:06.491Z,99925.97
2022-08-07T21:20:07.338Z,99940.88
2022-08-07T21:22:51.399Z,99941.28
2022-08-07T21:25:38.907Z,99914.78
2022-08-07T21:28:49.787Z,99934.03
2022-08-07T21:31:49.264Z,99923.25
2022-08-07T21:34:26.761Z,99934.69
2022-08-07T21:37:09.832Z,99926.19
2022-08-07T21:39:48.055Z,99939.19
2022-08-07T21:42:42.583Z,99944.66
2022-08-07T21:46:07.763Z,99937.84
2022-08-07T21:48:44.034Z,99921.56
2022-08-07T21:51:32.115Z,99921.41
2022-08-07T21:54:20.250Z,99921.81
2022-08-07T21:56:57.941Z,99934.91
2022-08-07T22:00:02.996Z,99914.19
2022-08-07T22:02:32.049Z,99933.47
2022-08-07T22:05:05.901Z,99926.81
2022-08-07T22:07:58.939Z,99924.72
2022-08-07T22:10:35.581Z,99942.22
2022-08-07T22:13:13.779Z,99943.03
2022-08-07T22:16:42.712Z,99924.78
2022-08-07T22:19:40.923Z,99955.66
2022-08-07T22:22:21.570Z,99946.34
2022-08-07T22:25:08.331Z,99955.94
2022-08-07T22:28:06.400Z,99949.28
2022-08-07T22:30:52.689Z,99943.09
2022-08-07T22:33:53.179Z,99926.97
2022-08-07T22:36:38.396Z,99929.06
2022-08-07T22:39:35.332Z,99945.28
2022-08-07T22:42:29.595Z,99941.78
2022-08-07T22:45:04.219Z,99933.53
2022-08-07T22:48:00.901Z,99941.16
2022-08-07T22:51:17.111Z,99936.09
2022-08-07T22:54:06.976Z,99936.00
2022-08-07T22:56:58.880Z,99932.81
2022-08-07T22:59:53.295Z,99926.75
2022-08-07T23:02:38.281Z,99937.19
2022-08-07T23:06:07.587Z,99927.63
2022-08-07T23:08:32.023Z,99933.53
2022-08-07T23:11:24.696Z,99936.09
2022-08-07T23:14:19.623Z,99932.81
2022-08-07T23:17:26.661Z,99935.16
2022-08-07T23:20:51.091Z,99939.41
2022-08-07T23:24:05.824Z,99934.31
2022-08-07T23:26:42.339Z,99943.16
2022-08-07T23:30:36.063Z,99943.53
2022-08-07T23:34:34.243Z,99943.78
2022-08-07T23:35:56.493Z,99949.50
2022-08-07T23:38:45.992Z,99950.47
2022-08-07T23:42:04.336Z,99949.97
2022-08-07T23:44:46.095Z,99952.50
2022-08-07T23:47:30.597Z,99948.66
2022-08-07T23:50:35.294Z,99957.25
2022-08-07T23:53:49.533Z,99956.31
2022-08-07T23:56:34.924Z,99957.72
